Altos, Brazil
Current Conditions -  °F | °C
As of 8:00 AM on Monday 20 Oct 2014 (Local Time) from SBTE Reporting Station
Broken Clouds Broken Clouds  
Wind Chill: 82°   Ceiling: 1700
Heat Index: 89°   Visibility: 6mi
Dew Point: 75°   Wind: 3mph
Humidity: 79%   Direction: 310°NW
Pressure: 29.85"   Gusts: NA
Location:  5.04°S, 42.46°W
Report Text: SBTE 201100Z 31003KT 9999 BKN017 28/24 Q1011
Loading
Personal Weather Stations






























Interactive Weather Map
Tropical Storm Tracking
New forecast layout! Learn more

10-Day Weather Forecast

Advertisements
Track Severe Weather on mobile